Time;durP1;ratioP1;P1;durP2;ratioP2;P2;SDS_P1;SDS_P2;PMS_P1;PMS_P2;Temp;Humidity;BMP_temperature;BMP_pressure;BME280_temperature;BME280_humidity;BME280_pressure;Samples;Min_cycle;Max_cycle;Signal;HPM_P1;HPM_P2
2023/11/05 00:00:34;;;;;;;4.10;2.17;;;9.30;99.90;;;;;;5068985;28;20183;-62
2023/11/05 00:02:59;;;;;;;1.97;1.40;;;9.30;99.90;;;;;;5061817;28;20284;-64
2023/11/05 00:05:25;;;;;;;3.47;1.90;;;9.30;99.90;;;;;;5062275;28;20278;-63
2023/11/05 00:07:51;;;;;;;2.83;2.63;;;9.30;99.90;;;;;;5046996;28;20185;-65
2023/11/05 00:10:16;;;;;;;3.03;2.20;;;9.30;99.90;;;;;;5065013;28;20185;-64
2023/11/05 00:12:42;;;;;;;2.27;2.07;;;9.30;99.90;;;;;;5064669;28;20545;-64
2023/11/05 00:15:08;;;;;;;2.47;1.90;;;9.30;99.90;;;;;;5063419;28;20201;-65
2023/11/05 00:17:34;;;;;;;2.80;2.17;;;9.30;99.90;;;;;;5046544;28;20195;-63
2023/11/05 00:20:02;;;;;;;1.97;1.80;;;9.40;99.90;;;;;;5067591;28;20436;-65
2023/11/05 00:22:28;;;;;;;2.77;2.57;;;9.30;99.90;;;;;;5069146;28;20181;-65
2023/11/05 00:24:53;;;;;;;2.47;1.87;;;9.40;99.90;;;;;;5062983;28;20963;-65
2023/11/05 00:27:19;;;;;;;1.70;1.60;;;9.40;99.90;;;;;;5064356;28;20206;-65
2023/11/05 00:29:45;;;;;;;3.10;2.13;;;9.40;99.90;;;;;;5052324;28;20274;-61
2023/11/05 00:32:11;;;;;;;2.40;2.17;;;9.40;99.90;;;;;;5056100;28;20186;-64
2023/11/05 00:34:37;;;;;;;2.33;1.70;;;9.40;99.90;;;;;;5062798;28;20252;-66
2023/11/05 00:37:03;;;;;;;2.50;2.30;;;9.40;99.90;;;;;;5064189;28;20527;-64
2023/11/05 00:39:28;;;;;;;7.30;1.90;;;9.30;99.90;;;;;;5062847;28;20182;-65
2023/11/05 00:41:54;;;;;;;2.93;1.80;;;9.30;99.90;;;;;;5057439;28;20793;-64
2023/11/05 00:44:19;;;;;;;3.27;2.33;;;9.30;99.90;;;;;;5043834;28;20185;-63
2023/11/05 00:46:45;;;;;;;1.80;1.53;;;9.30;99.90;;;;;;5045988;28;20676;-64
2023/11/05 00:49:13;;;;;;;2.93;1.87;;;9.30;99.90;;;;;;5064103;28;20202;-64
2023/11/05 00:51:39;;;;;;;2.57;2.07;;;9.30;99.90;;;;;;5061328;28;20175;-63
2023/11/05 00:54:04;;;;;;;3.03;1.70;;;9.30;99.90;;;;;;5060167;28;20758;-64
2023/11/05 00:56:30;;;;;;;2.87;1.47;;;9.30;99.90;;;;;;5068385;28;20730;-63
2023/11/05 00:58:55;;;;;;;2.30;1.57;;;9.30;99.90;;;;;;5056024;28;20179;-63
2023/11/05 01:01:21;;;;;;;2.00;1.70;;;9.30;99.90;;;;;;5065294;28;20216;-65
2023/11/05 01:03:47;;;;;;;1.70;1.60;;;9.30;99.90;;;;;;5064033;28;20257;-63
2023/11/05 01:06:12;;;;;;;4.30;1.90;;;9.30;99.90;;;;;;5065157;28;20508;-63
2023/11/05 01:08:38;;;;;;;1.87;1.67;;;9.30;99.90;;;;;;5070878;28;20177;-67
2023/11/05 01:11:03;;;;;;;2.90;2.07;;;9.30;99.90;;;;;;5072206;28;20251;-65
2023/11/05 01:13:29;;;;;;;2.57;2.07;;;9.30;99.90;;;;;;5064080;28;20177;-65
2023/11/05 01:15:55;;;;;;;3.43;1.50;;;9.30;99.90;;;;;;5039409;28;20513;-64
2023/11/05 01:18:20;;;;;;;1.80;1.70;;;9.40;99.90;;;;;;5064636;28;20257;-67
2023/11/05 01:20:46;;;;;;;1.73;1.60;;;9.40;99.90;;;;;;5055798;28;20230;-64
2023/11/05 01:23:11;;;;;;;4.07;1.73;;;9.40;99.90;;;;;;5063945;28;20181;-64
2023/11/05 01:25:37;;;;;;;2.10;1.50;;;9.40;99.90;;;;;;5064575;28;20259;-64
2023/11/05 01:28:03;;;;;;;2.40;1.70;;;9.40;99.90;;;;;;5065308;28;20480;-64
2023/11/05 01:30:28;;;;;;;3.90;1.70;;;9.40;99.90;;;;;;5070318;28;20178;-64
2023/11/05 01:32:54;;;;;;;1.90;1.40;;;9.40;99.90;;;;;;5060588;28;20185;-64
2023/11/05 01:35:19;;;;;;;1.87;1.70;;;9.50;99.90;;;;;;5063474;28;20195;-62
2023/11/05 01:37:45;;;;;;;3.77;2.07;;;9.50;99.90;;;;;;5062712;28;20170;-64
2023/11/05 01:40:11;;;;;;;2.07;1.30;;;9.50;99.90;;;;;;5063232;28;20633;-64
2023/11/05 01:42:37;;;;;;;2.93;1.53;;;9.50;99.90;;;;;;5066899;28;20177;-64
2023/11/05 01:45:03;;;;;;;2.13;1.63;;;9.50;99.90;;;;;;5048054;28;20761;-64
2023/11/05 01:47:29;;;;;;;1.67;1.57;;;9.50;99.90;;;;;;5063061;28;20699;-62
2023/11/05 01:49:55;;;;;;;2.10;1.63;;;9.50;99.90;;;;;;5063167;28;20461;-64
2023/11/05 01:52:22;;;;;;;2.20;1.37;;;9.50;99.90;;;;;;5063127;28;20649;-64
2023/11/05 01:54:47;;;;;;;1.50;1.40;;;9.50;99.90;;;;;;5059302;28;20519;-64
2023/11/05 01:57:13;;;;;;;1.90;1.40;;;9.60;99.90;;;;;;5059730;28;20436;-64
2023/11/05 01:59:39;;;;;;;2.37;1.47;;;9.60;99.90;;;;;;5059522;28;20181;-64
2023/11/05 02:02:06;;;;;;;1.37;1.27;;;9.60;99.90;;;;;;5065755;28;20791;-65
2023/11/05 02:04:32;;;;;;;1.80;1.70;;;9.60;99.90;;;;;;5067838;28;20922;-61
2023/11/05 02:06:57;;;;;;;2.27;1.73;;;9.60;99.90;;;;;;5059636;28;20460;-64
2023/11/05 02:09:23;;;;;;;2.63;1.60;;;9.60;99.90;;;;;;5059234;28;20175;-64
2023/11/05 02:11:49;;;;;;;1.77;1.47;;;9.50;99.90;;;;;;5062880;28;20193;-64
2023/11/05 02:14:15;;;;;;;2.20;1.70;;;9.50;99.90;;;;;;5062960;28;20249;-63
2023/11/05 02:16:41;;;;;;;3.63;2.03;;;9.40;99.90;;;;;;5066742;28;20220;-64
2023/11/05 02:19:07;;;;;;;1.67;1.57;;;9.40;99.90;;;;;;5059422;28;20419;-64
2023/11/05 02:21:44;;;;;;;3.00;1.23;;;9.30;99.90;;;;;;5060430;28;20171;-63
2023/11/05 02:24:09;;;;;;;1.60;1.40;;;9.20;99.90;;;;;;5053464;28;20202;-64
2023/11/05 02:26:35;;;;;;;1.60;1.50;;;9.20;99.90;;;;;;5052808;28;20440;-64
2023/11/05 02:29:01;;;;;;;1.73;1.60;;;9.20;99.90;;;;;;5058884;28;20230;-63
2023/11/05 02:31:26;;;;;;;2.43;1.73;;;9.10;99.90;;;;;;5039804;28;20544;-61
2023/11/05 02:33:52;;;;;;;1.87;1.67;;;9.10;99.90;;;;;;5059222;28;20174;-64
2023/11/05 02:36:18;;;;;;;2.10;1.80;;;9.00;99.90;;;;;;5059283;28;20205;-64
2023/11/05 02:38:43;;;;;;;2.63;1.70;;;9.00;99.90;;;;;;5069758;28;20224;-64
2023/11/05 02:41:11;;;;;;;1.70;1.57;;;8.90;99.90;;;;;;5062644;28;20254;-64
2023/11/05 02:43:37;;;;;;;2.10;1.90;;;8.90;99.90;;;;;;5070713;28;20179;-64
2023/11/05 02:46:03;;;;;;;1.70;1.60;;;8.90;99.90;;;;;;5061722;28;20455;-64
2023/11/05 02:48:29;;;;;;;1.43;1.33;;;8.90;99.90;;;;;;5066385;28;20936;-64
2023/11/05 02:50:54;;;;;;;2.10;1.60;;;8.80;99.90;;;;;;5067333;28;20562;-63
2023/11/05 02:53:21;;;;;;;2.40;1.90;;;8.80;99.90;;;;;;5067491;28;20209;-63
2023/11/05 02:55:46;;;;;;;1.60;1.50;;;8.80;99.90;;;;;;5065132;28;20207;-63
2023/11/05 02:58:13;;;;;;;2.07;1.87;;;8.80;99.90;;;;;;5074514;28;20418;-64
2023/11/05 03:00:39;;;;;;;2.43;1.60;;;8.80;99.90;;;;;;5065995;28;20235;-64
2023/11/05 03:03:05;;;;;;;1.60;1.50;;;8.70;99.90;;;;;;5055846;28;20465;-64
2023/11/05 03:05:30;;;;;;;5.83;1.93;;;8.70;99.90;;;;;;5062382;28;20231;-64
2023/11/05 03:07:56;;;;;;;2.20;1.90;;;8.70;99.90;;;;;;5062645;28;20576;-63
2023/11/05 03:10:21;;;;;;;1.70;1.60;;;8.70;99.90;;;;;;5065272;28;20209;-64
2023/11/05 03:12:47;;;;;;;2.00;1.43;;;8.70;99.90;;;;;;5062914;28;20189;-64
2023/11/05 03:15:12;;;;;;;2.20;1.80;;;8.70;99.90;;;;;;5065583;28;20250;-64
2023/11/05 03:17:38;;;;;;;1.87;1.77;;;8.70;99.90;;;;;;5058940;28;20741;-63
2023/11/05 03:20:07;;;;;;;2.07;1.87;;;8.70;99.90;;;;;;5055005;28;20210;-64
2023/11/05 03:22:37;;;;;;;2.67;2.00;;;8.70;99.90;;;;;;5062363;28;20915;-64
2023/11/05 03:25:04;;;;;;;1.70;1.43;;;8.70;99.90;;;;;;5060684;28;20517;-64
2023/11/05 03:27:29;;;;;;;1.93;1.83;;;8.70;99.90;;;;;;5062026;28;20473;-64
2023/11/05 03:29:55;;;;;;;3.20;2.00;;;8.70;99.90;;;;;;5061298;28;20823;-64
2023/11/05 03:32:21;;;;;;;2.10;1.80;;;8.70;99.90;;;;;;5061233;28;20228;-65
2023/11/05 03:34:46;;;;;;;1.87;1.70;;;8.70;99.90;;;;;;5054716;28;20201;-63
2023/11/05 03:37:12;;;;;;;2.00;1.80;;;8.70;99.90;;;;;;5053524;28;20202;-63
2023/11/05 03:39:38;;;;;;;3.93;2.40;;;8.70;99.90;;;;;;5041475;28;20549;-64
2023/11/05 03:42:04;;;;;;;2.13;1.93;;;8.70;99.90;;;;;;5056377;28;20548;-64
2023/11/05 03:44:30;;;;;;;2.10;1.93;;;8.70;99.90;;;;;;5055635;28;20636;-64
2023/11/05 03:46:58;;;;;;;2.50;2.30;;;8.70;99.90;;;;;;5015573;28;20445;-64
2023/11/05 03:49:24;;;;;;;2.70;2.00;;;8.70;99.90;;;;;;5030632;28;20422;-63
2023/11/05 03:51:50;;;;;;;1.73;1.60;;;8.70;99.90;;;;;;5053503;28;20400;-64
2023/11/05 03:54:15;;;;;;;2.37;2.17;;;8.70;99.90;;;;;;5054520;28;20182;-64
2023/11/05 03:56:42;;;;;;;4.23;2.17;;;8.70;99.90;;;;;;5059167;28;20662;-63
2023/11/05 03:59:08;;;;;;;7.67;2.47;;;8.70;99.90;;;;;;5047916;28;20201;-60
2023/11/05 04:01:33;;;;;;;2.13;1.97;;;8.70;99.90;;;;;;5046218;28;20453;-62
2023/11/05 04:03:59;;;;;;;1.83;1.70;;;8.80;99.90;;;;;;5060313;28;20177;-62
2023/11/05 04:06:24;;;;;;;3.57;1.97;;;8.80;99.90;;;;;;5024617;28;20580;-62
2023/11/05 04:08:50;;;;;;;2.97;2.03;;;8.80;99.90;;;;;;5051722;28;20198;-63
2023/11/05 04:11:16;;;;;;;2.03;1.93;;;8.80;99.90;;;;;;5056938;28;20175;-62
2023/11/05 04:13:45;;;;;;;3.20;2.30;;;8.80;99.90;;;;;;5062242;28;20630;-62
2023/11/05 04:16:11;;;;;;;5.50;2.33;;;8.80;99.90;;;;;;5061689;28;20205;-62
2023/11/05 04:18:37;;;;;;;2.80;2.10;;;8.80;99.90;;;;;;5059298;28;20420;-62
2023/11/05 04:21:06;;;;;;;1.87;1.77;;;8.80;99.90;;;;;;5037303;28;20178;-62
2023/11/05 04:23:33;;;;;;;1.70;1.60;;;8.80;99.90;;;;;;5047922;28;20428;-62
2023/11/05 04:25:59;;;;;;;2.60;1.90;;;8.80;99.90;;;;;;5059207;28;20444;-63
2023/11/05 04:28:24;;;;;;;2.60;1.93;;;8.80;99.90;;;;;;5060647;28;20446;-63
2023/11/05 04:30:50;;;;;;;2.23;2.03;;;8.80;99.90;;;;;;5056219;28;20433;-63
2023/11/05 04:33:16;;;;;;;2.03;1.80;;;8.90;99.90;;;;;;5061738;28;20680;-63
2023/11/05 04:35:42;;;;;;;2.30;2.10;;;8.90;99.90;;;;;;5062193;28;20210;-63
2023/11/05 04:38:08;;;;;;;2.73;2.40;;;8.90;99.90;;;;;;5041547;28;20198;-63
2023/11/05 04:40:34;;;;;;;2.93;1.87;;;8.90;99.90;;;;;;5058118;28;20418;-63
2023/11/05 04:42:59;;;;;;;2.37;2.17;;;8.90;99.90;;;;;;5046895;28;20425;-63
2023/11/05 04:45:25;;;;;;;6.13;1.90;;;8.90;99.90;;;;;;5057519;28;20241;-63
2023/11/05 04:47:51;;;;;;;1.47;1.37;;;8.90;99.90;;;;;;5056419;28;20220;-62
2023/11/05 04:50:16;;;;;;;3.87;2.13;;;8.90;99.90;;;;;;5065123;28;20288;-63
2023/11/05 04:52:42;;;;;;;2.13;1.80;;;8.90;99.90;;;;;;5062340;28;20254;-64
2023/11/05 04:55:08;;;;;;;1.80;1.63;;;8.90;99.90;;;;;;5049170;28;20243;-64
2023/11/05 04:57:33;;;;;;;2.50;1.37;;;8.90;99.90;;;;;;5057348;28;20257;-64
2023/11/05 04:59:59;;;;;;;1.83;1.73;;;9.00;99.90;;;;;;5054714;28;20222;-63
2023/11/05 05:02:25;;;;;;;1.93;1.80;;;9.00;99.90;;;;;;5047383;28;20554;-63
2023/11/05 05:04:51;;;;;;;2.00;1.80;;;8.90;99.90;;;;;;5034968;28;20185;-63
2023/11/05 05:07:17;;;;;;;1.70;1.60;;;8.90;99.90;;;;;;5049434;28;20461;-63
2023/11/05 05:09:44;;;;;;;1.60;1.50;;;8.80;99.90;;;;;;5044645;28;20483;-64
2023/11/05 05:12:09;;;;;;;1.67;1.57;;;8.70;99.90;;;;;;5047967;28;20698;-63
2023/11/05 05:14:35;;;;;;;3.30;1.70;;;8.70;99.90;;;;;;5047356;28;20178;-63
2023/11/05 05:17:01;;;;;;;2.63;1.77;;;8.70;99.90;;;;;;5051121;28;20664;-63
2023/11/05 05:19:26;;;;;;;1.80;1.70;;;8.60;99.90;;;;;;5050006;28;20167;-62
2023/11/05 05:21:52;;;;;;;1.70;1.40;;;8.60;99.90;;;;;;5062681;28;20978;-62
2023/11/05 05:24:18;;;;;;;1.50;1.40;;;8.60;99.90;;;;;;5060576;28;20176;-63
2023/11/05 05:26:43;;;;;;;2.00;1.60;;;8.50;99.90;;;;;;5068904;28;20211;-63
2023/11/05 05:29:09;;;;;;;1.87;1.60;;;8.50;99.90;;;;;;5063435;28;20179;-63
2023/11/05 05:31:35;;;;;;;2.20;2.00;;;8.60;99.90;;;;;;5063334;28;20186;-62
2023/11/05 05:34:01;;;;;;;2.10;1.33;;;8.60;99.90;;;;;;5056971;28;20226;-62
2023/11/05 05:36:27;;;;;;;1.93;1.60;;;8.60;99.90;;;;;;5054421;28;20213;-63
2023/11/05 05:38:52;;;;;;;1.33;1.23;;;8.50;99.90;;;;;;5061835;28;20442;-62
2023/11/05 05:41:18;;;;;;;5.00;1.60;;;8.60;99.90;;;;;;5060230;28;20179;-63
2023/11/05 05:43:44;;;;;;;1.40;1.20;;;8.60;99.90;;;;;;5060322;28;20209;-63
2023/11/05 05:46:18;;;;;;;2.23;1.23;;;8.60;99.90;;;;;;5062392;28;20202;-63
2023/11/05 05:48:44;;;;;;;2.20;1.20;;;8.70;99.90;;;;;;5058190;28;20186;-63
2023/11/05 05:51:12;;;;;;;1.47;1.37;;;8.70;99.90;;;;;;5059964;28;20808;-63
2023/11/05 05:53:38;;;;;;;1.57;1.23;;;8.70;99.90;;;;;;5057384;28;20174;-63
2023/11/05 05:56:04;;;;;;;1.27;1.17;;;8.70;99.90;;;;;;5063226;28;20494;-63
2023/11/05 05:58:30;;;;;;;1.73;1.63;;;8.60;99.90;;;;;;5058016;28;20481;-63
2023/11/05 06:00:56;;;;;;;1.30;1.20;;;8.70;99.90;;;;;;5061073;28;20510;-64
2023/11/05 06:03:21;;;;;;;1.20;1.10;;;8.60;99.90;;;;;;5060214;28;20422;-64
2023/11/05 06:05:47;;;;;;;1.13;1.03;;;8.60;99.90;;;;;;5060177;28;20207;-64
2023/11/05 06:08:13;;;;;;;1.37;1.20;;;8.60;99.90;;;;;;5060729;28;20179;-64
2023/11/05 06:10:39;;;;;;;1.50;1.40;;;8.60;99.90;;;;;;5057978;28;20181;-64
2023/11/05 06:13:04;;;;;;;4.00;1.37;;;8.60;99.90;;;;;;5057734;28;20412;-64
2023/11/05 06:15:30;;;;;;;2.40;1.20;;;8.60;99.90;;;;;;5053775;28;20202;-64
2023/11/05 06:17:57;;;;;;;2.20;1.50;;;8.60;99.90;;;;;;5061263;28;20181;-63
2023/11/05 06:20:22;;;;;;;1.60;1.50;;;8.60;99.90;;;;;;5065593;28;20826;-64
2023/11/05 06:22:48;;;;;;;2.07;1.00;;;8.60;99.90;;;;;;5063750;28;20412;-64
2023/11/05 06:25:13;;;;;;;1.10;1.00;;;8.60;99.90;;;;;;5059324;28;20174;-63
2023/11/05 06:27:39;;;;;;;1.00;0.90;;;8.60;99.90;;;;;;5057975;28;20228;-63
2023/11/05 06:30:06;;;;;;;1.10;1.00;;;8.60;99.90;;;;;;5050746;28;20204;-63
2023/11/05 06:32:35;;;;;;;1.03;0.90;;;8.60;99.90;;;;;;5062350;28;20185;-63
2023/11/05 06:35:01;;;;;;;1.57;1.10;;;8.60;99.90;;;;;;5067853;28;20877;-63
2023/11/05 06:37:27;;;;;;;1.20;1.10;;;8.70;99.90;;;;;;5063212;28;20436;-63
2023/11/05 06:39:53;;;;;;;1.90;1.20;;;8.70;99.90;;;;;;5073237;28;20435;-63
2023/11/05 06:42:19;;;;;;;1.17;1.07;;;8.80;99.90;;;;;;5066213;28;20897;-65
2023/11/05 06:44:46;;;;;;;1.73;1.20;;;9.20;99.90;;;;;;5039486;28;20416;-64
2023/11/05 06:47:11;;;;;;;1.53;1.33;;;9.20;99.90;;;;;;5061946;28;20440;-64
2023/11/05 06:49:37;;;;;;;2.10;1.20;;;9.20;99.90;;;;;;5062746;28;20409;-64
2023/11/05 06:52:03;;;;;;;7.10;1.47;;;9.30;99.90;;;;;;5070644;28;20202;-64
2023/11/05 06:54:28;;;;;;;2.67;1.33;;;9.30;99.90;;;;;;5061062;28;20189;-64
2023/11/05 06:56:54;;;;;;;1.30;1.10;;;9.50;99.90;;;;;;5062293;28;20194;-63
2023/11/05 06:59:20;;;;;;;1.07;0.97;;;9.50;99.90;;;;;;5061632;28;20388;-64
2023/11/05 07:01:47;;;;;;;1.37;1.13;;;9.60;99.90;;;;;;5063028;28;20290;-64
2023/11/05 07:04:13;;;;;;;1.10;1.00;;;9.80;99.90;;;;;;5066114;28;20185;-67
2023/11/05 07:06:38;;;;;;;2.00;1.17;;;9.90;99.90;;;;;;5063008;28;20444;-64
2023/11/05 07:09:06;;;;;;;1.70;1.10;;;10.10;99.90;;;;;;5064879;28;20930;-64
2023/11/05 07:11:32;;;;;;;1.40;1.23;;;10.10;99.90;;;;;;5061586;28;20175;-64
2023/11/05 07:13:58;;;;;;;4.60;2.40;;;10.40;99.90;;;;;;5062447;28;20889;-64
2023/11/05 07:16:25;;;;;;;3.40;1.10;;;10.40;99.90;;;;;;5061759;28;20297;-64
2023/11/05 07:18:51;;;;;;;1.40;1.30;;;10.40;99.90;;;;;;5068083;28;20468;-63
2023/11/05 07:21:17;;;;;;;1.77;1.33;;;10.50;99.90;;;;;;5059855;28;20447;-64
2023/11/05 07:23:43;;;;;;;2.50;1.53;;;10.40;99.90;;;;;;5061505;28;20421;-64
2023/11/05 07:26:10;;;;;;;1.63;1.27;;;10.50;99.90;;;;;;5063498;28;20202;-64
2023/11/05 07:28:36;;;;;;;1.90;1.43;;;10.40;99.90;;;;;;5060790;28;20409;-64
2023/11/05 07:31:02;;;;;;;1.43;1.33;;;10.40;99.90;;;;;;5069819;28;20428;-64
2023/11/05 07:33:28;;;;;;;1.80;1.47;;;10.30;99.90;;;;;;5067586;28;20535;-64
2023/11/05 07:35:54;;;;;;;2.50;2.03;;;10.20;99.90;;;;;;5064756;28;20468;-65
2023/11/05 07:38:21;;;;;;;2.93;1.30;;;10.30;99.90;;;;;;5059126;28;20171;-65
2023/11/05 07:40:47;;;;;;;1.80;1.20;;;10.20;99.90;;;;;;5069517;28;20177;-64
2023/11/05 07:43:13;;;;;;;1.40;1.20;;;10.40;99.90;;;;;;5065228;28;20401;-64
2023/11/05 07:45:39;;;;;;;1.70;1.50;;;10.40;99.90;;;;;;5064625;28;20507;-64
2023/11/05 07:48:05;;;;;;;1.47;1.37;;;10.50;99.90;;;;;;5061403;28;20574;-64
2023/11/05 07:50:31;;;;;;;2.30;1.40;;;10.50;99.90;;;;;;5061561;28;20497;-64
2023/11/05 07:52:57;;;;;;;3.20;1.50;;;10.60;99.90;;;;;;5056812;28;20541;-64
2023/11/05 07:55:22;;;;;;;1.77;1.53;;;10.60;99.90;;;;;;5064064;28;20464;-64
2023/11/05 07:57:49;;;;;;;2.17;1.70;;;10.50;99.90;;;;;;5064262;28;20170;-64
2023/11/05 08:00:17;;;;;;;1.40;1.30;;;10.50;99.90;;;;;;5041944;28;20174;-65
2023/11/05 08:02:43;;;;;;;2.23;1.60;;;10.50;99.90;;;;;;5061635;28;20832;-67
2023/11/05 08:05:09;;;;;;;2.47;1.50;;;10.50;99.90;;;;;;5069110;28;20416;-63
2023/11/05 08:07:35;;;;;;;2.50;1.47;;;10.40;99.90;;;;;;5049804;28;20519;-65
2023/11/05 08:10:00;;;;;;;1.57;1.40;;;10.40;99.90;;;;;;5056130;28;20183;-69
2023/11/05 08:12:27;;;;;;;1.47;1.37;;;10.40;99.90;;;;;;5063864;28;20178;-67
2023/11/05 08:14:52;;;;;;;1.67;1.50;;;10.50;99.90;;;;;;5057245;28;20211;-67
2023/11/05 08:17:19;;;;;;;1.57;1.37;;;10.60;99.90;;;;;;5064167;28;20846;-64
2023/11/05 08:19:44;;;;;;;1.80;1.60;;;10.60;99.90;;;;;;5051992;28;20648;-63
2023/11/05 08:22:10;;;;;;;2.60;1.70;;;10.80;99.90;;;;;;5049603;28;20437;-64
2023/11/05 08:24:36;;;;;;;2.80;1.40;;;10.80;99.90;;;;;;5044156;28;20176;-64
2023/11/05 08:27:02;;;;;;;4.13;1.97;;;10.80;99.90;;;;;;5054393;28;20495;-64
2023/11/05 08:29:28;;;;;;;1.30;1.20;;;10.80;99.90;;;;;;5046506;28;20212;-63
2023/11/05 08:31:53;;;;;;;2.80;1.60;;;10.80;99.90;;;;;;5048297;28;20171;-65
2023/11/05 08:34:19;;;;;;;2.50;2.07;;;10.80;99.90;;;;;;5022023;28;20194;-64
2023/11/05 08:36:45;;;;;;;3.80;1.77;;;10.80;99.90;;;;;;5047209;28;20210;-64
2023/11/05 08:39:11;;;;;;;2.00;1.90;;;10.70;99.90;;;;;;5041255;28;20171;-64
2023/11/05 08:41:37;;;;;;;2.20;1.73;;;10.60;99.90;;;;;;5042910;28;20241;-64
2023/11/05 08:44:03;;;;;;;1.90;1.70;;;10.60;99.90;;;;;;5028681;28;20417;-64
2023/11/05 08:46:29;;;;;;;1.90;1.80;;;10.60;99.90;;;;;;5029924;28;20997;-65
2023/11/05 08:48:55;;;;;;;2.53;1.70;;;10.50;99.90;;;;;;5051982;28;20437;-63
2023/11/05 08:51:28;;;;;;;1.73;1.63;;;10.50;99.90;;;;;;5046495;28;20441;-64
2023/11/05 08:53:53;;;;;;;2.20;1.40;;;10.40;99.90;;;;;;5050040;28;20603;-65
2023/11/05 08:56:20;;;;;;;2.33;1.90;;;10.40;99.90;;;;;;5045995;28;20459;-65
2023/11/05 08:58:48;;;;;;;2.40;2.20;;;10.50;99.90;;;;;;5049262;28;20175;-67
2023/11/05 09:01:16;;;;;;;1.83;1.73;;;10.40;99.90;;;;;;5048886;28;20432;-67
2023/11/05 09:03:42;;;;;;;2.03;1.77;;;10.50;99.90;;;;;;5036328;28;20905;-65
2023/11/05 09:06:09;;;;;;;2.23;2.13;;;10.50;99.90;;;;;;5038344;28;20885;-64
2023/11/05 09:08:38;;;;;;;3.00;2.70;;;10.40;99.90;;;;;;5024720;28;20799;-63
2023/11/05 09:11:04;;;;;;;2.60;2.23;;;10.50;99.90;;;;;;5045033;28;20488;-66
2023/11/05 09:13:33;;;;;;;2.67;2.47;;;10.50;99.90;;;;;;5044666;28;20405;-65
2023/11/05 09:15:58;;;;;;;3.30;2.57;;;10.60;99.90;;;;;;5050576;28;20977;-65
2023/11/05 09:18:25;;;;;;;7.17;2.50;;;10.60;99.90;;;;;;5047404;28;20438;-65
2023/11/05 09:20:51;;;;;;;2.50;2.30;;;10.80;99.90;;;;;;5020663;28;20263;-65
2023/11/05 09:23:16;;;;;;;2.63;2.43;;;10.80;99.90;;;;;;5050386;28;20404;-66
2023/11/05 09:25:42;;;;;;;5.53;4.60;;;10.90;99.90;;;;;;5049691;28;20820;-69
2023/11/05 09:28:08;;;;;;;34.03;20.40;;;10.90;99.90;;;;;;5050984;28;20205;-69
2023/11/05 09:30:34;;;;;;;2.53;2.33;;;11.00;99.90;;;;;;5048871;28;20179;-65
2023/11/05 09:33:00;;;;;;;3.37;2.53;;;11.00;99.90;;;;;;5056126;28;20204;-66
2023/11/05 09:35:26;;;;;;;3.90;2.70;;;11.10;99.90;;;;;;5060105;28;20460;-64
2023/11/05 09:37:52;;;;;;;2.40;2.20;;;11.00;99.90;;;;;;5047850;28;20417;-63
2023/11/05 09:40:18;;;;;;;4.10;1.90;;;11.00;99.90;;;;;;5043477;28;20461;-63
2023/11/05 09:43:00;;;;;;;1.83;1.73;;;10.90;99.90;;;;;;5054134;28;20171;-64
2023/11/05 09:45:30;;;;;;;2.87;2.67;;;10.90;99.90;;;;;;5053115;28;20186;-64
2023/11/05 09:47:58;;;;;;;2.50;2.30;;;10.80;99.90;;;;;;5050638;28;20433;-63
2023/11/05 09:50:24;;;;;;;2.80;2.03;;;10.80;99.90;;;;;;5049829;28;25631;-64
2023/11/05 09:52:52;;;;;;;2.77;1.93;;;10.80;99.90;;;;;;5008388;28;20437;-63
2023/11/05 09:55:18;;;;;;;2.40;2.20;;;10.70;99.90;;;;;;5027497;28;20459;-65
2023/11/05 09:57:47;;;;;;;2.07;1.80;;;10.70;99.90;;;;;;5046065;28;20880;-64
2023/11/05 10:00:14;;;;;;;2.40;2.20;;;10.70;99.90;;;;;;5030964;28;20464;-63
2023/11/05 10:03:03;;;;;;;2.20;2.00;;;10.70;99.90;;;;;;5042681;28;20810;-62
2023/11/05 10:05:37;;;;;;;2.27;1.93;;;10.70;99.90;;;;;;5058120;28;20521;-62
2023/11/05 10:08:07;;;;;;;1.83;1.60;;;10.70;99.90;;;;;;5052110;28;20457;-63
2023/11/05 10:10:37;;;;;;;2.53;1.87;;;10.80;99.90;;;;;;5046172;28;20495;-60
2023/11/05 10:13:06;;;;;;;4.70;2.43;;;10.80;99.90;;;;;;5011491;28;20438;-62
2023/11/05 10:15:36;;;;;;;2.57;2.37;;;10.70;99.90;;;;;;5008881;28;20461;-64
2023/11/05 10:18:03;;;;;;;2.30;2.10;;;10.70;99.90;;;;;;5045621;28;20929;-64
2023/11/05 10:20:30;;;;;;;4.90;2.17;;;10.80;99.90;;;;;;5047167;28;21058;-63
2023/11/05 10:23:03;;;;;;;3.53;1.90;;;10.80;99.90;;;;;;5048046;28;21015;-65
2023/11/05 10:25:30;;;;;;;3.83;2.40;;;10.90;99.90;;;;;;5041166;28;20434;-63
2023/11/05 10:27:59;;;;;;;1.50;1.40;;;11.00;99.90;;;;;;5040463;28;20449;-64
2023/11/05 10:30:26;;;;;;;2.30;1.80;;;11.20;99.90;;;;;;5049173;28;20932;-64
2023/11/05 10:32:53;;;;;;;4.00;1.70;;;11.20;99.90;;;;;;5017075;28;20440;-64
2023/11/05 10:35:21;;;;;;;12.73;7.43;;;11.10;99.90;;;;;;5036404;28;20457;-62
2023/11/05 10:37:48;;;;;;;5.60;4.00;;;11.00;99.90;;;;;;5043105;28;20429;-63
2023/11/05 10:40:17;;;;;;;6.47;5.40;;;10.80;99.90;;;;;;5045293;28;21152;-63
2023/11/05 10:42:45;;;;;;;2.70;2.20;;;10.90;99.90;;;;;;5046855;28;20437;-62
2023/11/05 10:45:13;;;;;;;3.13;1.83;;;11.10;99.90;;;;;;5045999;28;20434;-63
2023/11/05 10:47:38;;;;;;;2.33;2.00;;;11.00;99.90;;;;;;5058454;28;20474;-64
2023/11/05 10:50:08;;;;;;;2.73;2.30;;;11.10;99.90;;;;;;5053868;28;20537;-65
2023/11/05 10:52:37;;;;;;;2.30;1.93;;;11.20;99.90;;;;;;5047115;28;20189;-65
2023/11/05 10:55:09;;;;;;;2.20;2.00;;;11.20;99.90;;;;;;5050509;28;20463;-65
2023/11/05 10:57:48;;;;;;;1.80;1.40;;;11.30;99.90;;;;;;5048658;28;20449;-64
2023/11/05 11:00:15;;;;;;;1.60;1.50;;;11.40;99.90;;;;;;5041975;28;20580;-64
2023/11/05 11:02:44;;;;;;;7.00;3.50;;;11.40;99.90;;;;;;5048928;28;20431;-64
2023/11/05 11:05:12;;;;;;;3.40;3.10;;;11.60;99.90;;;;;;5054500;28;20909;-64
2023/11/05 11:07:42;;;;;;;2.77;2.07;;;11.40;99.90;;;;;;5034065;28;20962;-61
2023/11/05 11:10:12;;;;;;;2.47;1.80;;;11.50;99.90;;;;;;5014460;28;20521;-63
2023/11/05 11:12:38;;;;;;;2.40;2.20;;;11.50;99.90;;;;;;5053912;28;20493;-60
2023/11/05 11:15:09;;;;;;;4.10;2.10;;;11.60;99.90;;;;;;5029053;28;20556;-63
2023/11/05 11:17:39;;;;;;;2.80;1.87;;;11.70;99.90;;;;;;5035709;28;20882;-60
2023/11/05 11:20:13;;;;;;;1.90;1.70;;;11.80;99.90;;;;;;5050233;28;20993;-63
2023/11/05 11:22:43;;;;;;;2.77;1.80;;;11.80;99.90;;;;;;4995479;28;20484;-72
2023/11/05 11:25:17;;;;;;;3.53;1.30;;;11.90;99.90;;;;;;5051562;28;20925;-64
2023/11/05 11:27:47;;;;;;;2.07;1.27;;;11.90;99.90;;;;;;5038276;28;20447;-67
2023/11/05 11:30:14;;;;;;;1.50;1.40;;;12.00;99.90;;;;;;5062127;28;20409;-66
2023/11/05 11:32:41;;;;;;;1.80;1.37;;;12.00;99.90;;;;;;5053550;28;20766;-65
2023/11/05 11:35:07;;;;;;;2.10;1.63;;;12.10;99.90;;;;;;5052439;28;20463;-69
2023/11/05 11:37:34;;;;;;;3.23;1.60;;;12.20;99.90;;;;;;5053427;28;20526;-62
2023/11/05 11:40:01;;;;;;;3.10;2.17;;;12.30;99.90;;;;;;5051801;28;20426;-67
2023/11/05 11:42:27;;;;;;;2.97;1.73;;;12.20;99.90;;;;;;5045478;28;20414;-71
2023/11/05 11:45:03;;;;;;;3.20;1.70;;;12.40;99.90;;;;;;5032932;28;20441;-66
2023/11/05 11:47:29;;;;;;;2.10;1.43;;;12.40;99.90;;;;;;5037807;28;20455;-70
2023/11/05 11:50:09;;;;;;;3.00;1.30;;;12.40;99.90;;;;;;5047878;28;20421;-62
2023/11/05 11:52:48;;;;;;;2.53;1.60;;;12.20;99.90;;;;;;5002923;28;20463;-64
2023/11/05 11:55:15;;;;;;;1.30;1.13;;;12.30;99.90;;;;;;5045978;28;20556;-63
2023/11/05 11:57:51;;;;;;;1.50;1.10;;;12.30;99.90;;;;;;5054572;28;20970;-65
2023/11/05 12:00:20;;;;;;;1.70;1.40;;;12.20;99.90;;;;;;5038614;28;20423;-63
2023/11/05 12:02:46;;;;;;;2.40;1.40;;;12.30;99.90;;;;;;5051990;28;20464;-66
2023/11/05 12:05:13;;;;;;;1.23;1.13;;;12.30;99.90;;;;;;5040005;28;20932;-65
2023/11/05 12:07:50;;;;;;;2.10;1.57;;;12.20;99.90;;;;;;5057542;28;20449;-66
2023/11/05 12:10:18;;;;;;;1.10;1.00;;;12.30;99.90;;;;;;5008190;28;20496;-65
2023/11/05 12:12:49;;;;;;;1.30;1.20;;;12.30;99.90;;;;;;5017389;28;20488;-67
2023/11/05 12:15:16;;;;;;;2.60;1.40;;;12.50;99.90;;;;;;5041159;28;20475;-66
2023/11/05 12:17:43;;;;;;;3.50;1.60;;;12.60;99.90;;;;;;5040721;28;20472;-67
2023/11/05 12:20:12;;;;;;;1.27;1.13;;;12.60;99.90;;;;;;5038623;28;20426;-65
2023/11/05 12:22:40;;;;;;;1.57;1.37;;;12.70;99.90;;;;;;5034255;28;20767;-66
2023/11/05 12:25:09;;;;;;;2.50;1.77;;;12.70;99.90;;;;;;5059051;28;20425;-63
2023/11/05 12:27:35;;;;;;;3.23;1.30;;;12.70;99.90;;;;;;5053746;28;20452;-64
2023/11/05 12:30:07;;;;;;;3.47;1.40;;;12.60;99.90;;;;;;5049065;28;20459;-63
2023/11/05 12:32:34;;;;;;;1.57;1.37;;;12.60;99.90;;;;;;5040752;28;20567;-64
2023/11/05 12:35:01;;;;;;;2.90;1.87;;;12.60;99.90;;;;;;5016484;28;20437;-65
2023/11/05 12:37:35;;;;;;;1.43;1.20;;;12.80;99.90;;;;;;5043467;28;20468;-68
2023/11/05 12:40:01;;;;;;;1.93;1.00;;;13.10;99.90;;;;;;5031826;28;20508;-64
2023/11/05 12:42:27;;;;;;;2.33;1.50;;;13.10;99.90;;;;;;5013684;28;20465;-66
2023/11/05 12:44:53;;;;;;;1.77;1.47;;;13.00;99.90;;;;;;5029819;28;20488;-65
2023/11/05 12:47:18;;;;;;;2.80;1.33;;;13.00;99.90;;;;;;5051559;28;20444;-66
2023/11/05 12:49:44;;;;;;;1.50;1.30;;;13.00;99.90;;;;;;5053792;28;20171;-67